Albert, Kansas
Current Conditions -  °F | °C
As of 2:35 AM on Sunday 26 Oct 2014 (Local Time) from KGBD Reporting Station
Clear Clear  
Wind Chill: 66°   Ceiling: Unl
Heat Index: 66°   Visibility: 10mi
Dew Point: 52°   Wind: 13mph
Humidity: 60%   Direction: 200°SSW
Pressure: 29.88"   Gusts: NA
Location:  38.45°N, 99.01°W
Report Text: KGBD 260735Z AUTO 20011KT 10SM CLR 19/11 A2988 RMK AO1
Loading
Personal Weather Stations






























Interactive Weather Map
Tropical Storm Tracking
New forecast layout! Learn more

10-Day Weather Forecast

Advertisements
Track Severe Weather on mobile